sensor_id;sensor_type;location;lat;lon;timestamp;pressure;altitude;pressure_sealevel;temperature;humidity
57102;BME280;42982;54.558;18.508;2022-11-15T00:00:19;101082.03;;;8.35;79.51
57102;BME280;42982;54.558;18.508;2022-11-15T00:01:40;101079.91;;;8.37;79.37
57102;BME280;42982;54.558;18.508;2022-11-15T00:03:02;101079.91;;;8.37;79.95
57102;BME280;42982;54.558;18.508;2022-11-15T00:04:24;101079.91;;;8.37;79.28
57102;BME280;42982;54.558;18.508;2022-11-15T00:05:49;101071.31;;;8.35;79.89
57102;BME280;42982;54.558;18.508;2022-11-15T00:07:13;101075.31;;;8.32;79.59
57102;BME280;42982;54.558;18.508;2022-11-15T00:08:36;101068.09;;;8.33;79.58
57102;BME280;42982;54.558;18.508;2022-11-15T00:09:59;101067.59;;;8.36;80.26
57102;BME280;42982;54.558;18.508;2022-11-15T00:11:20;101065.63;;;8.31;79.89
57102;BME280;42982;54.558;18.508;2022-11-15T00:12:40;101071.81;;;8.32;79.55
57102;BME280;42982;54.558;18.508;2022-11-15T00:14:03;101062.72;;;8.33;79.64
57102;BME280;42982;54.558;18.508;2022-11-15T00:15:27;101064.34;;;8.34;80.07
57102;BME280;42982;54.558;18.508;2022-11-15T00:16:47;101065.94;;;8.35;80.12
57102;BME280;42982;54.558;18.508;2022-11-15T00:18:15;101066.03;;;8.40;79.69
57102;BME280;42982;54.558;18.508;2022-11-15T00:19:36;101067.97;;;8.45;80.00
57102;BME280;42982;54.558;18.508;2022-11-15T00:21:06;101067.22;;;8.49;79.97
57102;BME280;42982;54.558;18.508;2022-11-15T00:22:32;101075.81;;;8.51;79.59
57102;BME280;42982;54.558;18.508;2022-11-15T00:23:55;101068.03;;;8.50;79.57
57102;BME280;42982;54.558;18.508;2022-11-15T00:25:21;101065.84;;;8.47;79.63
57102;BME280;42982;54.558;18.508;2022-11-15T00:26:45;101065.34;;;8.50;79.95
57102;BME280;42982;54.558;18.508;2022-11-15T00:28:09;101072.31;;;8.51;79.76
57102;BME280;42982;54.558;18.508;2022-11-15T00:29:31;101067.53;;;8.53;79.43
57102;BME280;42982;54.558;18.508;2022-11-15T00:30:52;101061.09;;;8.54;79.66
57102;BME280;42982;54.558;18.508;2022-11-15T00:32:12;101066.44;;;8.54;79.66
57102;BME280;42982;54.558;18.508;2022-11-15T00:33:36;101062.72;;;8.55;79.29
57102;BME280;42982;54.558;18.508;2022-11-15T00:34:59;101068.63;;;8.57;79.46
57102;BME280;42982;54.558;18.508;2022-11-15T00:36:24;101057.09;;;8.56;79.76
57102;BME280;42982;54.558;18.508;2022-11-15T00:37:49;101064.84;;;8.53;79.26
57102;BME280;42982;54.558;18.508;2022-11-15T00:39:12;101056.50;;;8.49;79.21
57102;BME280;42982;54.558;18.508;2022-11-15T00:40:35;101061.06;;;8.49;79.40
57102;BME280;42982;54.558;18.508;2022-11-15T00:41:58;101058.38;;;8.49;79.29
57102;BME280;42982;54.558;18.508;2022-11-15T00:43:19;101055.94;;;8.47;79.69
57102;BME280;42982;54.558;18.508;2022-11-15T00:44:40;101061.28;;;8.47;79.27
57102;BME280;42982;54.558;18.508;2022-11-15T00:46:01;101055.13;;;8.47;79.80
57102;BME280;42982;54.558;18.508;2022-11-15T00:47:22;101056.19;;;8.46;79.63
57102;BME280;42982;54.558;18.508;2022-11-15T00:48:46;101052.44;;;8.47;79.59
57102;BME280;42982;54.558;18.508;2022-11-15T00:50:08;101055.69;;;8.49;79.52
57102;BME280;42982;54.558;18.508;2022-11-15T00:51:32;101047.66;;;8.49;79.53
57102;BME280;42982;54.558;18.508;2022-11-15T00:52:53;101040.66;;;8.48;79.79
57102;BME280;42982;54.558;18.508;2022-11-15T00:54:13;101044.66;;;8.45;79.49
57102;BME280;42982;54.558;18.508;2022-11-15T00:55:34;101042.00;;;8.45;79.42
57102;BME280;42982;54.558;18.508;2022-11-15T00:57:00;101031.22;;;8.40;79.36
57102;BME280;42982;54.558;18.508;2022-11-15T00:58:21;101038.34;;;8.34;79.08
57102;BME280;42982;54.558;18.508;2022-11-15T00:59:45;101039.72;;;8.37;80.03
57102;BME280;42982;54.558;18.508;2022-11-15T01:01:07;101033.88;;;8.40;79.94
57102;BME280;42982;54.558;18.508;2022-11-15T01:02:31;101026.16;;;8.44;79.99
57102;BME280;42982;54.558;18.508;2022-11-15T01:03:52;101024.84;;;8.46;80.16
57102;BME280;42982;54.558;18.508;2022-11-15T01:05:12;101026.97;;;8.44;79.84
57102;BME280;42982;54.558;18.508;2022-11-15T01:06:33;101023.75;;;8.42;80.04
57102;BME280;42982;54.558;18.508;2022-11-15T01:07:56;101026.97;;;8.44;80.20
57102;BME280;42982;54.558;18.508;2022-11-15T01:09:17;101019.47;;;8.46;79.96
57102;BME280;42982;54.558;18.508;2022-11-15T01:10:41;101021.09;;;8.47;79.78
57102;BME280;42982;54.558;18.508;2022-11-15T01:12:03;101021.66;;;8.49;80.10
57102;BME280;42982;54.558;18.508;2022-11-15T01:13:27;101014.19;;;8.51;79.89
57102;BME280;42982;54.558;18.508;2022-11-15T01:14:51;101010.44;;;8.52;79.77
57102;BME280;42982;54.558;18.508;2022-11-15T01:16:17;101014.72;;;8.53;79.55
57102;BME280;42982;54.558;18.508;2022-11-15T01:17:45;101015.22;;;8.50;79.42
57102;BME280;42982;54.558;18.508;2022-11-15T01:19:08;101009.88;;;8.50;79.86
57102;BME280;42982;54.558;18.508;2022-11-15T01:20:32;101005.59;;;8.49;79.58
57102;BME280;42982;54.558;18.508;2022-11-15T01:21:56;101005.00;;;8.47;79.94
57102;BME280;42982;54.558;18.508;2022-11-15T01:23:17;101006.31;;;8.45;79.56
57102;BME280;42982;54.558;18.508;2022-11-15T01:24:38;101000.16;;;8.44;79.92
57102;BME280;42982;54.558;18.508;2022-11-15T01:26:00;101003.41;;;8.46;79.73
57102;BME280;42982;54.558;18.508;2022-11-15T01:27:21;101003.41;;;8.46;79.80
57102;BME280;42982;54.558;18.508;2022-11-15T01:28:42;101002.81;;;8.39;79.57
57102;BME280;42982;54.558;18.508;2022-11-15T01:30:07;100999.72;;;8.30;79.66
57102;BME280;42982;54.558;18.508;2022-11-15T01:31:31;100996.75;;;8.27;79.85
57102;BME280;42982;54.558;18.508;2022-11-15T01:32:52;100996.19;;;8.25;80.14
57102;BME280;42982;54.558;18.508;2022-11-15T01:34:13;100985.47;;;8.25;80.18
57102;BME280;42982;54.558;18.508;2022-11-15T01:35:38;100995.59;;;8.18;80.39
57102;BME280;42982;54.558;18.508;2022-11-15T01:36:59;100989.56;;;8.05;80.49
57102;BME280;42982;54.558;18.508;2022-11-15T01:38:22;100992.72;;;8.02;80.71
57102;BME280;42982;54.558;18.508;2022-11-15T01:39:49;100989.56;;;8.05;80.75
57102;BME280;42982;54.558;18.508;2022-11-15T01:41:31;100983.69;;;8.08;81.27
57102;BME280;42982;54.558;18.508;2022-11-15T01:42:56;100988.56;;;8.11;80.95
57102;BME280;42982;54.558;18.508;2022-11-15T01:44:50;100984.88;;;8.18;81.25
57102;BME280;42982;54.558;18.508;2022-11-15T01:47:47;100966.13;;;8.18;81.14
57102;BME280;42982;54.558;18.508;2022-11-15T01:49:13;100966.34;;;8.16;80.92
57102;BME280;42982;54.558;18.508;2022-11-15T01:50:34;100961.84;;;8.17;81.57
57102;BME280;42982;54.558;18.508;2022-11-15T01:52:01;100965.31;;;8.17;81.16
57102;BME280;42982;54.558;18.508;2022-11-15T01:53:27;100958.09;;;8.18;81.09
57102;BME280;42982;54.558;18.508;2022-11-15T01:56:39;100959.38;;;8.15;81.08
57102;BME280;42982;54.558;18.508;2022-11-15T01:58:04;100954.84;;;8.16;81.20
57102;BME280;42982;54.558;18.508;2022-11-15T01:59:25;100950.28;;;8.16;80.87
57102;BME280;42982;54.558;18.508;2022-11-15T02:00:49;100955.66;;;8.16;81.10
57102;BME280;42982;54.558;18.508;2022-11-15T02:02:10;100952.16;;;8.16;81.22
57102;BME280;42982;54.558;18.508;2022-11-15T02:03:37;100952.66;;;8.12;81.28
57102;BME280;42982;54.558;18.508;2022-11-15T02:05:01;100949.44;;;8.10;81.31
57102;BME280;42982;54.558;18.508;2022-11-15T02:06:22;100939.53;;;8.11;81.35
57102;BME280;42982;54.558;18.508;2022-11-15T02:07:43;100944.63;;;8.12;81.44
57102;BME280;42982;54.558;18.508;2022-11-15T02:09:04;100939.84;;;8.15;81.56
57102;BME280;42982;54.558;18.508;2022-11-15T02:10:25;100942.25;;;8.16;81.51
57102;BME280;42982;54.558;18.508;2022-11-15T02:11:48;100933.09;;;8.12;81.70
57102;BME280;42982;54.558;18.508;2022-11-15T02:13:13;100931.44;;;8.06;81.87
57102;BME280;42982;54.558;18.508;2022-11-15T02:14:34;100935.19;;;8.05;81.67
57102;BME280;42982;54.558;18.508;2022-11-15T02:28:44;100926.84;;;8.01;82.29
57102;BME280;42982;54.558;18.508;2022-11-15T02:31:51;100916.16;;;8.01;82.17
57102;BME280;42982;54.558;18.508;2022-11-15T02:34:54;100918.75;;;7.96;82.64
57102;BME280;42982;54.558;18.508;2022-11-15T02:37:56;100915.00;;;7.97;82.23
57102;BME280;42982;54.558;18.508;2022-11-15T02:39:28;100910.50;;;7.98;82.78
57102;BME280;42982;54.558;18.508;2022-11-15T02:42:33;100913.69;;;8.00;82.44
57102;BME280;42982;54.558;18.508;2022-11-15T02:44:19;100915.34;;;8.01;82.73
57102;BME280;42982;54.558;18.508;2022-11-15T02:45:50;100918.56;;;8.03;83.09
57102;BME280;42982;54.558;18.508;2022-11-15T02:47:16;100913.50;;;8.06;82.55
57102;BME280;42982;54.558;18.508;2022-11-15T02:48:39;100918.06;;;8.06;82.39
57102;BME280;42982;54.558;18.508;2022-11-15T02:50:10;100913.25;;;8.08;82.46
57102;BME280;42982;54.558;18.508;2022-11-15T02:51:30;100912.50;;;8.12;82.88
57102;BME280;42982;54.558;18.508;2022-11-15T02:52:52;100911.97;;;8.16;83.01
57102;BME280;42982;54.558;18.508;2022-11-15T02:54:21;100908.50;;;8.15;82.13
57102;BME280;42982;54.558;18.508;2022-11-15T02:55:45;100906.63;;;8.16;82.57
57102;BME280;42982;54.558;18.508;2022-11-15T02:57:16;100907.44;;;8.16;82.18
57102;BME280;42982;54.558;18.508;2022-11-15T02:58:56;100907.19;;;8.18;82.46
57102;BME280;42982;54.558;18.508;2022-11-15T03:00:20;100900.75;;;8.19;82.48
57102;BME280;42982;54.558;18.508;2022-11-15T03:07:15;100892.72;;;8.19;82.06
57102;BME280;42982;54.558;18.508;2022-11-15T03:09:02;100895.41;;;8.19;82.64
57102;BME280;42982;54.558;18.508;2022-11-15T03:12:55;100882.28;;;8.17;82.22
57102;BME280;42982;54.558;18.508;2022-11-15T03:14:23;100874.78;;;8.19;82.53
57102;BME280;42982;54.558;18.508;2022-11-15T03:17:26;100871.34;;;8.24;82.45
57102;BME280;42982;54.558;18.508;2022-11-15T03:18:59;100871.66;;;8.27;82.86
57102;BME280;42982;54.558;18.508;2022-11-15T03:20:27;100875.41;;;8.26;82.73
57102;BME280;42982;54.558;18.508;2022-11-15T03:21:54;100880.19;;;8.24;82.26
57102;BME280;42982;54.558;18.508;2022-11-15T03:23:17;100872.97;;;8.25;82.06
57102;BME280;42982;54.558;18.508;2022-11-15T03:24:38;100876.75;;;8.29;82.50
57102;BME280;42982;54.558;18.508;2022-11-15T03:26:00;100879.19;;;8.30;82.70
57102;BME280;42982;54.558;18.508;2022-11-15T03:27:26;100883.22;;;8.33;82.45
57102;BME280;42982;54.558;18.508;2022-11-15T03:28:58;100876.78;;;8.34;82.59
57102;BME280;42982;54.558;18.508;2022-11-15T03:30:21;100880.03;;;8.36;82.41
57102;BME280;42982;54.558;18.508;2022-11-15T03:31:48;100880.59;;;8.38;82.52
57102;BME280;42982;54.558;18.508;2022-11-15T03:33:13;100874.72;;;8.41;82.46
57102;BME280;42982;54.558;18.508;2022-11-15T03:34:57;100879.84;;;8.43;82.64
57102;BME280;42982;54.558;18.508;2022-11-15T03:36:22;100877.97;;;8.43;81.96
57102;BME280;42982;54.558;18.508;2022-11-15T03:37:53;100877.91;;;8.38;81.60
57102;BME280;42982;54.558;18.508;2022-11-15T03:39:14;100877.34;;;8.36;82.00
57102;BME280;42982;54.558;18.508;2022-11-15T03:40:41;100876.00;;;8.33;82.14
57102;BME280;42982;54.558;18.508;2022-11-15T03:42:42;100873.03;;;8.35;81.64
57102;BME280;42982;54.558;18.508;2022-11-15T03:44:20;100872.50;;;8.33;81.77
57102;BME280;42982;54.558;18.508;2022-11-15T03:45:46;100868.69;;;8.29;81.70
57102;BME280;42982;54.558;18.508;2022-11-15T03:47:15;100877.81;;;8.28;81.85
57102;BME280;42982;54.558;18.508;2022-11-15T03:48:41;100877.25;;;8.26;81.67
57102;BME280;42982;54.558;18.508;2022-11-15T03:50:13;100875.06;;;8.23;82.27
57102;BME280;42982;54.558;18.508;2022-11-15T03:51:37;100869.72;;;8.23;81.88
57102;BME280;42982;54.558;18.508;2022-11-15T03:53:01;100871.06;;;8.20;82.40
57102;BME280;42982;54.558;18.508;2022-11-15T03:54:21;100866.25;;;8.22;81.80
57102;BME280;42982;54.558;18.508;2022-11-15T03:55:43;100865.19;;;8.23;82.19
57102;BME280;42982;54.558;18.508;2022-11-15T03:57:06;100852.09;;;8.27;82.36
57102;BME280;42982;54.558;18.508;2022-11-15T03:58:26;100851.06;;;8.33;82.34
57102;BME280;42982;54.558;18.508;2022-11-15T03:59:50;100854.78;;;8.27;81.91
57102;BME280;42982;54.558;18.508;2022-11-15T04:01:11;100851.50;;;8.20;82.21
57102;BME280;42982;54.558;18.508;2022-11-15T04:02:35;100858.72;;;8.19;82.10
57102;BME280;42982;54.558;18.508;2022-11-15T04:03:59;100860.84;;;8.17;82.05
57102;BME280;42982;54.558;18.508;2022-11-15T04:05:21;100856.81;;;8.15;82.09
57102;BME280;42982;54.558;18.508;2022-11-15T04:06:46;100867.53;;;8.15;82.05
57102;BME280;42982;54.558;18.508;2022-11-15T04:08:08;100861.38;;;8.14;82.03
57102;BME280;42982;54.558;18.508;2022-11-15T04:09:29;100865.41;;;8.17;82.46
57102;BME280;42982;54.558;18.508;2022-11-15T04:10:51;100866.66;;;8.09;82.17
57102;BME280;42982;54.558;18.508;2022-11-15T04:12:12;100864.50;;;8.06;82.48
57102;BME280;42982;54.558;18.508;2022-11-15T04:13:36;100859.44;;;8.09;82.53
57102;BME280;42982;54.558;18.508;2022-11-15T04:15:07;100854.69;;;8.17;82.30
57102;BME280;42982;54.558;18.508;2022-11-15T04:16:30;100862.53;;;8.23;82.69
57102;BME280;42982;54.558;18.508;2022-11-15T04:17:54;100863.34;;;8.29;82.70
57102;BME280;42982;54.558;18.508;2022-11-15T04:19:17;100856.38;;;8.28;82.52
57102;BME280;42982;54.558;18.508;2022-11-15T04:20:57;100859.34;;;8.26;82.43
57102;BME280;42982;54.558;18.508;2022-11-15T04:22:37;100860.63;;;8.24;82.26
57102;BME280;42982;54.558;18.508;2022-11-15T04:24:16;100852.81;;;8.17;81.51
57102;BME280;42982;54.558;18.508;2022-11-15T04:25:39;100856.88;;;8.20;82.06
57102;BME280;42982;54.558;18.508;2022-11-15T04:27:00;100853.66;;;8.23;82.03
57102;BME280;42982;54.558;18.508;2022-11-15T04:28:21;100857.69;;;8.25;82.25
57102;BME280;42982;54.558;18.508;2022-11-15T04:29:44;100861.22;;;8.31;81.97
57102;BME280;42982;54.558;18.508;2022-11-15T04:31:07;100864.97;;;8.30;82.26
57102;BME280;42982;54.558;18.508;2022-11-15T04:32:31;100871.34;;;8.24;81.82
57102;BME280;42982;54.558;18.508;2022-11-15T04:33:55;100856.53;;;8.16;81.58
57102;BME280;42982;54.558;18.508;2022-11-15T04:35:17;100860.06;;;8.17;81.98
57102;BME280;42982;54.558;18.508;2022-11-15T04:36:38;100858.69;;;8.14;81.89
57102;BME280;42982;54.558;18.508;2022-11-15T04:38:20;100852.25;;;8.15;82.05
57102;BME280;42982;54.558;18.508;2022-11-15T04:39:47;100857.91;;;8.19;81.70
57102;BME280;42982;54.558;18.508;2022-11-15T04:41:07;100857.91;;;8.19;82.20
57102;BME280;42982;54.558;18.508;2022-11-15T04:42:34;100850.88;;;8.12;81.67
57102;BME280;42982;54.558;18.508;2022-11-15T04:43:59;100851.97;;;8.11;82.04
57102;BME280;42982;54.558;18.508;2022-11-15T04:45:22;100853.34;;;8.14;82.00
57102;BME280;42982;54.558;18.508;2022-11-15T04:46:43;100851.75;;;8.18;82.26
57102;BME280;42982;54.558;18.508;2022-11-15T04:48:09;100854.38;;;8.13;81.76
57102;BME280;42982;54.558;18.508;2022-11-15T04:49:30;100853.06;;;8.16;81.93
57102;BME280;42982;54.558;18.508;2022-11-15T04:50:53;100856.31;;;8.18;82.13
57102;BME280;42982;54.558;18.508;2022-11-15T04:52:17;100849.53;;;8.10;82.05
57102;BME280;42982;54.558;18.508;2022-11-15T04:53:40;100850.88;;;8.07;81.92
57102;BME280;42982;54.558;18.508;2022-11-15T04:55:04;100854.59;;;8.06;82.32
57102;BME280;42982;54.558;18.508;2022-11-15T04:56:28;100853.53;;;8.07;82.03
57102;BME280;42982;54.558;18.508;2022-11-15T04:57:57;100854.06;;;8.09;82.54
57102;BME280;42982;54.558;18.508;2022-11-15T04:59:23;100848.22;;;8.12;82.49
57102;BME280;42982;54.558;18.508;2022-11-15T05:00:44;100848.13;;;8.02;82.18
57102;BME280;42982;54.558;18.508;2022-11-15T05:02:05;100851.31;;;7.99;82.14
57102;BME280;42982;54.558;18.508;2022-11-15T05:03:26;100842.47;;;7.99;82.30
57102;BME280;42982;54.558;18.508;2022-11-15T05:05:06;100851.88;;;8.01;82.49
57102;BME280;42982;54.558;18.508;2022-11-15T05:06:31;100842.22;;;8.00;82.25
57102;BME280;42982;54.558;18.508;2022-11-15T05:07:52;100836.56;;;7.97;82.10
57102;BME280;42982;54.558;18.508;2022-11-15T05:09:16;100841.41;;;8.00;82.12
57102;BME280;42982;54.558;18.508;2022-11-15T05:10:37;100836.09;;;8.05;82.42
57102;BME280;42982;54.558;18.508;2022-11-15T05:11:59;100840.16;;;8.07;82.56
57102;BME280;42982;54.558;18.508;2022-11-15T05:13:24;100843.94;;;8.11;82.63
57102;BME280;42982;54.558;18.508;2022-11-15T05:14:52;100840.44;;;8.11;82.31
57102;BME280;42982;54.558;18.508;2022-11-15T05:16:15;100839.38;;;8.12;82.48
57102;BME280;42982;54.558;18.508;2022-11-15T05:17:36;100841.25;;;8.11;82.39
57102;BME280;42982;54.558;18.508;2022-11-15T05:18:56;100843.38;;;8.09;82.05
57102;BME280;42982;54.558;18.508;2022-11-15T05:20:17;100842.56;;;8.09;82.12
57102;BME280;42982;54.558;18.508;2022-11-15T05:21:38;100839.31;;;8.07;82.31
57102;BME280;42982;54.558;18.508;2022-11-15T05:23:01;100840.66;;;8.04;81.94
57102;BME280;42982;54.558;18.508;2022-11-15T05:24:27;100838.50;;;8.06;82.40
57102;BME280;42982;54.558;18.508;2022-11-15T05:25:47;100847.91;;;8.09;82.46
57102;BME280;42982;54.558;18.508;2022-11-15T05:27:11;100842.63;;;8.14;82.45
57102;BME280;42982;54.558;18.508;2022-11-15T05:28:35;100843.16;;;8.16;82.64
57102;BME280;42982;54.558;18.508;2022-11-15T05:30:00;100839.13;;;8.13;81.88
57102;BME280;42982;54.558;18.508;2022-11-15T05:31:23;100839.88;;;8.09;82.23
57102;BME280;42982;54.558;18.508;2022-11-15T05:32:47;100835.91;;;8.11;82.15
57102;BME280;42982;54.558;18.508;2022-11-15T05:34:10;100841.03;;;8.18;81.89
57102;BME280;42982;54.558;18.508;2022-11-15T05:35:45;100844.28;;;8.20;81.88
57102;BME280;42982;54.558;18.508;2022-11-15T05:37:09;100831.94;;;8.19;81.58
57102;BME280;42982;54.558;18.508;2022-11-15T05:38:34;100831.13;;;8.19;81.83
57102;BME280;42982;54.558;18.508;2022-11-15T05:40:01;100841.81;;;8.13;81.65
57102;BME280;42982;54.558;18.508;2022-11-15T05:41:31;100834.81;;;8.12;81.71
57102;BME280;42982;54.558;18.508;2022-11-15T05:42:52;100834.59;;;8.14;81.89
57102;BME280;42982;54.558;18.508;2022-11-15T05:44:17;100835.91;;;8.11;81.61
57102;BME280;42982;54.558;18.508;2022-11-15T05:45:43;100833.97;;;8.07;81.65
57102;BME280;42982;54.558;18.508;2022-11-15T05:47:08;100835.31;;;8.04;81.66
57102;BME280;42982;54.558;18.508;2022-11-15T05:48:33;100839.03;;;8.03;81.81
57102;BME280;42982;54.558;18.508;2022-11-15T05:49:57;100841.69;;;8.03;81.90
57102;BME280;42982;54.558;18.508;2022-11-15T05:51:22;100843.06;;;8.06;81.92
57102;BME280;42982;54.558;18.508;2022-11-15T05:52:44;100842.84;;;8.07;81.74
57102;BME280;42982;54.558;18.508;2022-11-15T05:54:07;100845.50;;;8.07;81.92
57102;BME280;42982;54.558;18.508;2022-11-15T05:55:31;100848.13;;;8.02;81.94
57102;BME280;42982;54.558;18.508;2022-11-15T05:56:56;100844.38;;;8.03;82.19
57102;BME280;42982;54.558;18.508;2022-11-15T05:58:18;100849.44;;;8.00;82.12
57102;BME280;42982;54.558;18.508;2022-11-15T05:59:39;100856.94;;;7.98;81.89
57102;BME280;42982;54.558;18.508;2022-11-15T06:01:01;100845.41;;;7.97;82.44
57102;BME280;42982;54.558;18.508;2022-11-15T06:02:29;100841.69;;;7.98;81.96
57102;BME280;42982;54.558;18.508;2022-11-15T06:03:55;100840.88;;;7.98;81.88
57102;BME280;42982;54.558;18.508;2022-11-15T06:05:19;100839.53;;;8.00;82.43
57102;BME280;42982;54.558;18.508;2022-11-15T06:06:42;100835.81;;;8.01;82.28
57102;BME280;42982;54.558;18.508;2022-11-15T06:08:02;100841.97;;;8.02;81.84
57102;BME280;42982;54.558;18.508;2022-11-15T06:09:24;100841.16;;;8.01;82.24
57102;BME280;42982;54.558;18.508;2022-11-15T06:10:45;100830.47;;;8.01;81.91
57102;BME280;42982;54.558;18.508;2022-11-15T06:12:09;100838.22;;;8.03;82.27
57102;BME280;42982;54.558;18.508;2022-11-15T06:13:36;100847.31;;;8.02;82.33
57102;BME280;42982;54.558;18.508;2022-11-15T06:15:00;100852.38;;;7.98;81.77
57102;BME280;42982;54.558;18.508;2022-11-15T06:16:23;100858.53;;;7.99;82.08
57102;BME280;42982;54.558;18.508;2022-11-15T06:17:46;100864.09;;;7.92;81.98
57102;BME280;42982;54.558;18.508;2022-11-15T06:19:07;100852.09;;;7.95;81.84
57102;BME280;42982;54.558;18.508;2022-11-15T06:20:29;100856.94;;;7.98;81.69
57102;BME280;42982;54.558;18.508;2022-11-15T06:21:50;100853.19;;;7.99;81.93
57102;BME280;42982;54.558;18.508;2022-11-15T06:23:12;100859.09;;;8.01;81.99
57102;BME280;42982;54.558;18.508;2022-11-15T06:24:33;100862.09;;;8.04;81.93
57102;BME280;42982;54.558;18.508;2022-11-15T06:25:53;100867.97;;;8.06;82.15
57102;BME280;42982;54.558;18.508;2022-11-15T06:27:23;100863.63;;;8.00;81.90
57102;BME280;42982;54.558;18.508;2022-11-15T06:28:46;100863.59;;;7.95;81.55
57102;BME280;42982;54.558;18.508;2022-11-15T06:30:08;100857.69;;;7.93;81.99
57102;BME280;42982;54.558;18.508;2022-11-15T06:31:30;100865.63;;;7.83;81.65
57102;BME280;42982;54.558;18.508;2022-11-15T06:32:51;100859.66;;;7.76;82.13
57102;BME280;42982;54.558;18.508;2022-11-15T06:34:14;100858.59;;;7.77;81.99
57102;BME280;42982;54.558;18.508;2022-11-15T06:35:36;100855.66;;;7.78;82.37
57102;BME280;42982;54.558;18.508;2022-11-15T06:37:02;100859.97;;;7.79;82.33
57102;BME280;42982;54.558;18.508;2022-11-15T06:38:23;100860.19;;;7.78;82.32
57102;BME280;42982;54.558;18.508;2022-11-15T06:39:44;100861.84;;;7.79;82.28
57102;BME280;42982;54.558;18.508;2022-11-15T06:41:07;100863.19;;;7.81;82.61
57102;BME280;42982;54.558;18.508;2022-11-15T06:42:28;100867.22;;;7.84;82.61
57102;BME280;42982;54.558;18.508;2022-11-15T06:43:52;100863.50;;;7.85;82.28
57102;BME280;42982;54.558;18.508;2022-11-15T06:45:15;100858.69;;;7.87;82.71
57102;BME280;42982;54.558;18.508;2022-11-15T06:46:36;100858.75;;;7.92;82.60
57102;BME280;42982;54.558;18.508;2022-11-15T06:47:59;100859.28;;;7.94;82.66
57102;BME280;42982;54.558;18.508;2022-11-15T06:49:20;100854.50;;;7.96;82.22
57102;BME280;42982;54.558;18.508;2022-11-15T06:50:55;100860.44;;;8.03;82.43
57102;BME280;42982;54.558;18.508;2022-11-15T06:52:23;100859.41;;;8.04;82.29
57102;BME280;42982;54.558;18.508;2022-11-15T06:53:44;100859.94;;;8.06;82.33
57102;BME280;42982;54.558;18.508;2022-11-15T06:55:08;100857.81;;;8.08;82.22
57102;BME280;42982;54.558;18.508;2022-11-15T06:56:31;100858.63;;;8.09;81.66
57102;BME280;42982;54.558;18.508;2022-11-15T06:57:52;100852.72;;;8.07;81.86
57102;BME280;42982;54.558;18.508;2022-11-15T06:59:13;100852.72;;;8.07;81.74
57102;BME280;42982;54.558;18.508;2022-11-15T07:00:36;100853.47;;;8.02;81.87
57102;BME280;42982;54.558;18.508;2022-11-15T07:02:02;100857.75;;;7.98;81.71
57102;BME280;42982;54.558;18.508;2022-11-15T07:03:28;100856.44;;;8.01;81.88
57102;BME280;42982;54.558;18.508;2022-11-15T07:04:48;100855.34;;;8.02;82.15
57102;BME280;42982;54.558;18.508;2022-11-15T07:06:14;100854.28;;;8.03;81.82
57102;BME280;42982;54.558;18.508;2022-11-15T07:07:41;100851.38;;;8.04;81.93
57102;BME280;42982;54.558;18.508;2022-11-15T07:09:02;100852.19;;;8.05;81.83
57102;BME280;42982;54.558;18.508;2022-11-15T07:10:28;100851.38;;;8.04;81.53
57102;BME280;42982;54.558;18.508;2022-11-15T07:11:49;100852.97;;;8.05;81.96
57102;BME280;42982;54.558;18.508;2022-11-15T07:13:12;100857.81;;;8.08;82.25
57102;BME280;42982;54.558;18.508;2022-11-15T07:14:33;100854.38;;;8.13;81.93
57102;BME280;42982;54.558;18.508;2022-11-15T07:15:54;100843.13;;;8.11;81.87
57102;BME280;42982;54.558;18.508;2022-11-15T07:17:15;100852.25;;;8.15;82.18
57102;BME280;42982;54.558;18.508;2022-11-15T07:18:36;100845.03;;;8.16;82.40
57102;BME280;42982;54.558;18.508;2022-11-15T07:20:01;100846.09;;;8.15;81.93
57102;BME280;42982;54.558;18.508;2022-11-15T07:21:22;100844.50;;;8.13;81.99
57102;BME280;42982;54.558;18.508;2022-11-15T07:22:42;100845.28;;;8.14;81.91
57102;BME280;42982;54.558;18.508;2022-11-15T07:24:05;100843.16;;;8.16;81.70
57102;BME280;42982;54.558;18.508;2022-11-15T07:25:27;100843.97;;;8.17;81.74
57102;BME280;42982;54.558;18.508;2022-11-15T07:26:50;100846.41;;;8.18;81.75
57102;BME280;42982;54.558;18.508;2022-11-15T07:28:11;100843.16;;;8.16;81.87
57102;BME280;42982;54.558;18.508;2022-11-15T07:29:33;100845.28;;;8.14;81.60
57102;BME280;42982;54.558;18.508;2022-11-15T07:30:57;100839.94;;;8.14;81.59
57102;BME280;42982;54.558;18.508;2022-11-15T07:32:24;100843.41;;;8.15;82.16
57102;BME280;42982;54.558;18.508;2022-11-15T07:33:47;100852.25;;;8.15;81.95
57102;BME280;42982;54.558;18.508;2022-11-15T07:35:10;100840.75;;;8.15;81.52
57102;BME280;42982;54.558;18.508;2022-11-15T07:36:31;100845.59;;;8.18;81.75
57102;BME280;42982;54.558;18.508;2022-11-15T07:37:59;100851.47;;;8.15;82.01
57102;BME280;42982;54.558;18.508;2022-11-15T07:39:21;100850.88;;;8.12;81.90
57102;BME280;42982;54.558;18.508;2022-11-15T07:40:41;100855.22;;;8.13;82.57
57102;BME280;42982;54.558;18.508;2022-11-15T07:42:01;100850.94;;;8.18;82.56
57102;BME280;42982;54.558;18.508;2022-11-15T07:43:44;100857.41;;;8.22;82.26
57102;BME280;42982;54.558;18.508;2022-11-15T07:45:07;100854.47;;;8.23;82.58
57102;BME280;42982;54.558;18.508;2022-11-15T07:46:34;100854.22;;;8.25;82.35
57102;BME280;42982;54.558;18.508;2022-11-15T07:47:55;100859.34;;;8.26;82.26
57102;BME280;42982;54.558;18.508;2022-11-15T07:49:16;100852.63;;;8.29;82.26
57102;BME280;42982;54.558;18.508;2022-11-15T07:50:40;100862.25;;;8.25;81.82
57102;BME280;42982;54.558;18.508;2022-11-15T07:52:01;100848.34;;;8.28;82.39
57102;BME280;42982;54.558;18.508;2022-11-15T07:53:24;100849.19;;;8.33;82.40